Time;durP1;ratioP1;P1;durP2;ratioP2;P2;SDS_P1;SDS_P2;PMS_P1;PMS_P2;Temp;Humidity;BMP_temperature;BMP_pressure;BME280_temperature;BME280_humidity;BME280_pressure;Samples;Min_cycle;Max_cycle;Signal;HPM_P1;HPM_P2
2022/11/08 00:03:31;;;;;;;14.90;3.78;;;;;;;;;;5052044;28;20049;-72
2022/11/08 00:14:12;;;;;;;23.02;4.22;;;;;;;;;;5052117;28;20045;-72
2022/11/08 00:16:39;;;;;;;17.67;4.10;;;;;;;;;;5052015;28;20385;-74
2022/11/08 00:19:05;;;;;;;11.60;3.38;;;;;;;;;;5052151;28;20044;-74
2022/11/08 00:21:32;;;;;;;13.13;2.70;;;;;;;;;;5051157;28;20048;-74
2022/11/08 00:23:58;;;;;;;13.13;2.72;;;;;;;;;;5051701;28;20057;-74
2022/11/08 00:26:24;;;;;;;11.55;2.78;;;;;;;;;;5051951;28;20053;-74
2022/11/08 00:28:51;;;;;;;11.68;3.10;;;;;;;;;;5051947;28;20041;-75
2022/11/08 00:31:17;;;;;;;16.15;3.17;;;;;;;;;;5051656;28;20055;-74
2022/11/08 00:33:43;;;;;;;15.48;3.05;;;;;;;;;;5051494;28;20408;-75
2022/11/08 00:36:10;;;;;;;14.07;3.80;;;;;;;;;;5050358;28;20536;-74
2022/11/08 00:38:39;;;;;;;12.98;2.95;;;;;;;;;;5051432;28;20493;-74
2022/11/08 00:41:06;;;;;;;19.27;3.10;;;;;;;;;;5051777;28;20055;-73
2022/11/08 00:43:32;;;;;;;16.58;3.08;;;;;;;;;;5051508;28;20049;-74
2022/11/08 00:45:58;;;;;;;15.32;3.35;;;;;;;;;;5051760;28;20413;-74
2022/11/08 00:48:25;;;;;;;16.85;3.17;;;;;;;;;;5050413;28;20080;-74
2022/11/08 00:50:51;;;;;;;17.55;3.25;;;;;;;;;;5051457;28;20047;-74
2022/11/08 00:53:18;;;;;;;12.82;2.67;;;;;;;;;;5051418;28;20588;-75
2022/11/08 00:55:44;;;;;;;18.52;3.72;;;;;;;;;;5037542;28;20051;-74
2022/11/08 00:58:10;;;;;;;13.68;3.03;;;;;;;;;;5050517;28;20056;-74
2022/11/08 01:00:37;;;;;;;19.20;2.47;;;;;;;;;;5050054;28;20056;-75
2022/11/08 01:03:18;;;;;;;15.05;2.80;;;;;;;;;;5049953;28;20471;-76
2022/11/08 01:05:45;;;;;;;18.23;3.10;;;;;;;;;;5051282;28;20045;-75
2022/11/08 01:08:12;;;;;;;18.30;3.25;;;;;;;;;;5051621;28;20037;-74
2022/11/08 01:10:39;;;;;;;13.70;2.17;;;;;;;;;;5051587;28;20131;-75
2022/11/08 01:13:06;;;;;;;14.90;2.75;;;;;;;;;;5051533;28;20292;-76
2022/11/08 01:15:36;;;;;;;14.15;2.65;;;;;;;;;;5051370;28;20044;-76
2022/11/08 01:18:03;;;;;;;16.48;2.70;;;;;;;;;;5049862;28;20079;-75
2022/11/08 01:20:29;;;;;;;14.82;2.63;;;;;;;;;;5051203;28;20060;-75
2022/11/08 01:22:55;;;;;;;14.40;1.95;;;;;;;;;;5051255;28;20051;-75
2022/11/08 01:25:22;;;;;;;13.63;2.13;;;;;;;;;;5051084;28;20477;-75
2022/11/08 01:27:48;;;;;;;10.90;2.25;;;;;;;;;;5051066;28;20053;-75
2022/11/08 01:30:14;;;;;;;11.35;1.65;;;;;;;;;;5050997;28;20485;-74
2022/11/08 01:32:41;;;;;;;14.18;2.20;;;;;;;;;;5052432;28;20071;-75
2022/11/08 01:35:08;;;;;;;16.50;2.25;;;;;;;;;;5049346;28;20056;-75
2022/11/08 01:37:34;;;;;;;17.00;2.58;;;;;;;;;;5055130;28;20045;-75
2022/11/08 01:40:01;;;;;;;15.18;2.78;;;;;;;;;;5054785;28;20063;-75
2022/11/08 01:42:28;;;;;;;12.70;2.03;;;;;;;;;;5054928;28;20041;-76
2022/11/08 01:44:57;;;;;;;13.63;2.20;;;;;;;;;;5054692;28;20401;-76
2022/11/08 01:47:24;;;;;;;11.90;1.98;;;;;;;;;;5054601;28;20047;-75
2022/11/08 01:49:51;;;;;;;12.02;1.83;;;;;;;;;;5054845;28;20049;-75
2022/11/08 01:52:29;;;;;;;6.47;1.95;;;;;;;;;;5054763;28;20350;-76
2022/11/08 01:54:58;;;;;;;6.20;1.73;;;;;;;;;;5054540;28;20055;-75
2022/11/08 01:57:27;;;;;;;6.60;0.80;;;;;;;;;;5054733;28;20053;-74
2022/11/08 01:59:56;;;;;;;3.13;0.50;;;;;;;;;;5054383;28;20045;-73
2022/11/08 02:02:22;;;;;;;2.33;0.30;;;;;;;;;;5054225;28;20059;-74
2022/11/08 02:04:49;;;;;;;3.28;0.30;;;;;;;;;;5054455;28;20102;-74
2022/11/08 02:07:16;;;;;;;1.33;0.30;;;;;;;;;;5054544;28;20124;-74
2022/11/08 02:09:43;;;;;;;2.03;0.47;;;;;;;;;;5054288;28;20466;-75
2022/11/08 02:12:11;;;;;;;2.90;0.28;;;;;;;;;;5054227;28;20048;-74
2022/11/08 02:14:37;;;;;;;2.63;0.10;;;;;;;;;;5054334;28;20052;-73
2022/11/08 02:17:04;;;;;;;0.43;0.10;;;;;;;;;;5054488;28;20349;-73
2022/11/08 02:19:39;;;;;;;0.98;0.10;;;;;;;;;;5054260;28;20132;-74
2022/11/08 02:22:08;;;;;;;0.52;0.00;;;;;;;;;;5053944;28;20507;-75
2022/11/08 02:24:35;;;;;;;2.75;0.10;;;;;;;;;;5053989;28;20045;-76
2022/11/08 02:27:01;;;;;;;0.50;0.10;;;;;;;;;;5053848;28;20077;-77
2022/11/08 02:29:30;;;;;;;0.20;0.00;;;;;;;;;;5054153;28;20051;-76
2022/11/08 02:31:57;;;;;;;1.55;0.17;;;;;;;;;;5053524;28;20045;-77
2022/11/08 02:34:26;;;;;;;0.95;0.10;;;;;;;;;;5054117;28;20049;-76
2022/11/08 02:36:53;;;;;;;2.35;0.52;;;;;;;;;;5053559;28;20489;-75
2022/11/08 02:39:19;;;;;;;2.42;0.10;;;;;;;;;;5045839;28;20509;-75
2022/11/08 02:41:45;;;;;;;0.95;0.10;;;;;;;;;;5047746;28;20047;-75
2022/11/08 02:44:12;;;;;;;1.50;0.10;;;;;;;;;;5053476;28;20041;-76
2022/11/08 02:46:38;;;;;;;2.97;0.10;;;;;;;;;;5053581;28;20049;-74
2022/11/08 02:49:04;;;;;;;0.68;0.22;;;;;;;;;;5053764;28;20053;-75
2022/11/08 02:51:31;;;;;;;1.48;0.10;;;;;;;;;;5053481;28;20496;-76
2022/11/08 02:53:57;;;;;;;1.05;0.10;;;;;;;;;;5053310;28;20052;-78
2022/11/08 02:56:23;;;;;;;0.52;0.20;;;;;;;;;;5053457;28;20489;-76
2022/11/08 02:58:50;;;;;;;1.58;0.28;;;;;;;;;;5053422;28;20055;-76
2022/11/08 03:01:16;;;;;;;3.30;0.30;;;;;;;;;;5053519;28;20127;-76
2022/11/08 03:03:43;;;;;;;10.38;0.75;;;;;;;;;;5053148;28;20063;-75
2022/11/08 03:06:09;;;;;;;5.18;0.70;;;;;;;;;;5053050;28;20497;-75
2022/11/08 03:08:35;;;;;;;5.32;0.98;;;;;;;;;;5053106;28;20137;-74
2022/11/08 03:11:02;;;;;;;9.40;1.45;;;;;;;;;;5053351;28;20052;-73
2022/11/08 03:13:28;;;;;;;9.30;2.00;;;;;;;;;;5053282;28;20045;-73
2022/11/08 03:15:54;;;;;;;18.73;2.33;;;;;;;;;;5052700;28;20049;-73
2022/11/08 03:18:21;;;;;;;13.40;1.90;;;;;;;;;;5052731;28;20049;-73
2022/11/08 03:20:47;;;;;;;12.40;2.00;;;;;;;;;;5052864;28;20059;-73
2022/11/08 03:23:13;;;;;;;16.02;2.20;;;;;;;;;;5052656;28;20053;-73
2022/11/08 03:25:40;;;;;;;20.20;2.38;;;;;;;;;;5052789;28;20045;-73
2022/11/08 03:28:07;;;;;;;13.82;2.40;;;;;;;;;;5052771;28;20045;-73
2022/11/08 03:30:35;;;;;;;16.55;2.67;;;;;;;;;;5051520;28;20045;-73
2022/11/08 03:33:01;;;;;;;22.38;3.13;;;;;;;;;;5052451;28;20065;-73
2022/11/08 03:35:28;;;;;;;14.32;1.90;;;;;;;;;;5052826;28;20049;-72
2022/11/08 03:37:55;;;;;;;14.60;2.78;;;;;;;;;;5052785;28;20048;-73
2022/11/08 03:40:22;;;;;;;16.63;2.22;;;;;;;;;;5049970;28;20455;-72
2022/11/08 03:42:48;;;;;;;23.50;3.30;;;;;;;;;;5049104;28;20059;-72
2022/11/08 03:45:15;;;;;;;15.43;2.30;;;;;;;;;;5052509;28;20047;-72
2022/11/08 03:47:43;;;;;;;18.17;2.47;;;;;;;;;;5052483;28;20052;-72
2022/11/08 03:50:10;;;;;;;17.55;2.75;;;;;;;;;;5052579;28;20057;-72
2022/11/08 03:52:44;;;;;;;17.80;2.55;;;;;;;;;;5052521;28;20048;-73
2022/11/08 03:55:10;;;;;;;17.55;2.55;;;;;;;;;;5051630;28;20059;-72
2022/11/08 03:57:38;;;;;;;15.88;2.55;;;;;;;;;;5052140;28;20059;-72
2022/11/08 04:00:05;;;;;;;;;;;;;;;;;;5052901;28;20133;-72
2022/11/08 04:02:31;;;;;;;25.15;3.67;;;;;;;;;;5052031;28;19991;-72
2022/11/08 04:04:57;;;;;;;15.93;2.40;;;;;;;;;;5052001;28;20095;-72
2022/11/08 04:07:24;;;;;;;14.07;2.53;;;;;;;;;;5051955;28;20049;-72
2022/11/08 04:09:50;;;;;;;17.63;2.53;;;;;;;;;;5051941;28;20049;-72
2022/11/08 04:15:16;;;;;;;15.00;2.83;;;;;;;;;;5051883;28;20048;-72
2022/11/08 04:23:15;;;;;;;14.95;2.10;;;;;;;;;;5051746;28;20048;-72
2022/11/08 04:25:41;;;;;;;17.00;3.05;;;;;;;;;;5051795;28;20037;-72
2022/11/08 04:28:08;;;;;;;14.60;2.83;;;;;;;;;;5051726;28;20041;-71
2022/11/08 04:30:35;;;;;;;16.67;2.38;;;;;;;;;;5051866;28;20045;-71
2022/11/08 04:33:02;;;;;;;15.70;1.77;;;;;;;;;;5051561;28;20057;-72
2022/11/08 04:35:29;;;;;;;15.23;2.40;;;;;;;;;;5051692;28;20045;-71
2022/11/08 04:37:59;;;;;;;18.88;2.25;;;;;;;;;;5050674;28;20047;-71
2022/11/08 04:40:26;;;;;;;13.15;1.65;;;;;;;;;;5051780;28;20049;-71
2022/11/08 04:42:52;;;;;;;15.65;2.35;;;;;;;;;;5051763;28;20063;-71
2022/11/08 04:45:19;;;;;;;16.63;1.80;;;;;;;;;;5051704;28;20060;-72
2022/11/08 04:47:46;;;;;;;16.23;2.10;;;;;;;;;;5024200;28;20045;-72
2022/11/08 04:50:14;;;;;;;16.58;2.78;;;;;;;;;;5051539;28;20103;-72
2022/11/08 04:52:41;;;;;;;12.37;1.70;;;;;;;;;;5051367;28;20053;-72
2022/11/08 04:55:07;;;;;;;9.50;2.17;;;;;;;;;;5051692;28;20290;-72
2022/11/08 04:57:34;;;;;;;12.63;2.03;;;;;;;;;;5051724;28;20049;-72
2022/11/08 05:00:00;;;;;;;12.43;1.58;;;;;;;;;;5051675;28;20051;-72
2022/11/08 05:02:26;;;;;;;13.75;2.17;;;;;;;;;;5051546;28;20056;-72
2022/11/08 05:04:53;;;;;;;11.95;1.70;;;;;;;;;;5051583;28;20040;-72
2022/11/08 05:07:19;;;;;;;11.65;2.03;;;;;;;;;;5054032;28;20060;-72
2022/11/08 05:09:46;;;;;;;12.88;1.98;;;;;;;;;;5055553;28;20123;-72
2022/11/08 05:12:12;;;;;;;11.23;1.90;;;;;;;;;;5055649;28;20049;-72
2022/11/08 05:14:39;;;;;;;14.27;2.05;;;;;;;;;;5055353;28;20049;-72
2022/11/08 05:17:05;;;;;;;11.18;1.88;;;;;;;;;;5055538;28;20136;-72
2022/11/08 05:25:01;;;;;;;12.50;1.92;;;;;;;;;;5055349;28;20057;-73
2022/11/08 05:27:27;;;;;;;11.43;2.50;;;;;;;;;;5055376;28;20052;-72
2022/11/08 05:29:54;;;;;;;12.20;1.83;;;;;;;;;;5054965;28;20045;-71
2022/11/08 05:32:20;;;;;;;16.65;2.92;;;;;;;;;;5054823;28;20060;-72
2022/11/08 05:34:47;;;;;;;7.43;1.98;;;;;;;;;;5055172;28;20049;-72
2022/11/08 05:37:13;;;;;;;15.02;2.65;;;;;;;;;;5054926;28;20571;-72
2022/11/08 05:39:39;;;;;;;14.15;1.90;;;;;;;;;;5055001;28;20416;-72
2022/11/08 05:42:06;;;;;;;19.38;2.58;;;;;;;;;;5054873;28;20044;-72
2022/11/08 05:44:32;;;;;;;21.02;2.47;;;;;;;;;;5054946;28;20492;-72
2022/11/08 05:46:58;;;;;;;21.42;3.13;;;;;;;;;;5054648;28;20049;-72
2022/11/08 05:49:25;;;;;;;17.52;3.08;;;;;;;;;;5054861;28;20047;-72
2022/11/08 05:51:51;;;;;;;13.60;2.40;;;;;;;;;;5054803;28;20045;-72
2022/11/08 05:54:17;;;;;;;19.25;3.30;;;;;;;;;;5054634;28;20132;-72
2022/11/08 05:56:44;;;;;;;24.65;2.92;;;;;;;;;;5054523;28;20063;-72
2022/11/08 05:59:10;;;;;;;15.55;3.10;;;;;;;;;;5054649;28;20060;-72
2022/11/08 06:01:36;;;;;;;14.38;3.00;;;;;;;;;;5054605;28;20048;-72
2022/11/08 06:04:03;;;;;;;22.35;3.28;;;;;;;;;;5054556;28;20041;-72
2022/11/08 06:06:29;;;;;;;20.67;3.38;;;;;;;;;;5054462;28;20400;-72
2022/11/08 06:08:56;;;;;;;22.70;3.92;;;;;;;;;;5054478;28;20051;-71
2022/11/08 06:11:23;;;;;;;22.70;3.00;;;;;;;;;;5054171;28;20045;-72
2022/11/08 06:13:50;;;;;;;25.92;3.80;;;;;;;;;;5054264;28;20153;-72
2022/11/08 06:16:17;;;;;;;20.40;3.50;;;;;;;;;;5054284;28;20136;-71
2022/11/08 06:18:44;;;;;;;28.77;4.55;;;;;;;;;;5053478;28;20055;-71
2022/11/08 06:21:11;;;;;;;29.17;4.32;;;;;;;;;;5054227;28;20057;-71
2022/11/08 06:23:37;;;;;;;18.83;4.50;;;;;;;;;;5054139;28;20037;-71
2022/11/08 06:26:04;;;;;;;24.63;4.15;;;;;;;;;;5053965;28;20055;-71
2022/11/08 06:28:31;;;;;;;28.05;4.38;;;;;;;;;;5054074;28;20071;-71
2022/11/08 06:30:58;;;;;;;32.00;4.50;;;;;;;;;;5054064;28;20045;-72
2022/11/08 06:33:24;;;;;;;24.00;4.22;;;;;;;;;;5053863;28;20063;-72
2022/11/08 06:35:51;;;;;;;29.48;4.72;;;;;;;;;;5054054;28;20055;-71
2022/11/08 06:38:17;;;;;;;24.67;4.88;;;;;;;;;;5053667;28;20500;-72
2022/11/08 06:40:43;;;;;;;31.60;4.35;;;;;;;;;;5053788;28;20405;-72
2022/11/08 06:43:10;;;;;;;26.40;4.82;;;;;;;;;;5053525;28;20053;-72
2022/11/08 06:45:44;;;;;;;30.52;5.03;;;;;;;;;;5053845;28;20045;-72
2022/11/08 06:48:10;;;;;;;28.20;4.35;;;;;;;;;;5053715;28;20071;-72
2022/11/08 06:50:37;;;;;;;29.75;3.97;;;;;;;;;;5053618;28;20079;-71
2022/11/08 06:53:04;;;;;;;32.70;5.07;;;;;;;;;;5053635;28;20055;-71
2022/11/08 06:55:31;;;;;;;25.98;4.60;;;;;;;;;;5053635;28;20055;-72
2022/11/08 06:57:58;;;;;;;34.67;5.88;;;;;;;;;;5053282;28;20047;-72
2022/11/08 07:00:25;;;;;;;34.00;5.40;;;;;;;;;;5053627;28;20400;-71
2022/11/08 07:02:52;;;;;;;31.53;4.77;;;;;;;;;;5052630;28;20408;-71
2022/11/08 07:05:19;;;;;;;24.38;4.68;;;;;;;;;;5032841;28;20041;-72
2022/11/08 07:07:50;;;;;;;33.87;4.60;;;;;;;;;;5032939;28;20045;-69
2022/11/08 07:10:18;;;;;;;26.50;4.15;;;;;;;;;;5032726;28;20049;-70
2022/11/08 07:12:44;;;;;;;26.15;5.15;;;;;;;;;;5032989;28;20041;-70
2022/11/08 07:15:11;;;;;;;30.35;5.05;;;;;;;;;;5032796;28;20049;-70
2022/11/08 07:17:37;;;;;;;22.15;3.50;;;;;;;;;;5032796;28;20056;-70
2022/11/08 07:20:04;;;;;;;22.45;4.20;;;;;;;;;;5032938;28;20057;-71
2022/11/08 07:22:31;;;;;;;27.40;3.90;;;;;;;;;;5052268;28;20045;-71
2022/11/08 07:24:57;;;;;;;28.15;4.30;;;;;;;;;;5053045;28;20048;-71
2022/11/08 07:27:23;;;;;;;21.83;3.00;;;;;;;;;;5052986;28;20053;-71
2022/11/08 07:29:50;;;;;;;30.42;3.47;;;;;;;;;;5053027;28;20508;-71
2022/11/08 07:32:16;;;;;;;19.15;3.55;;;;;;;;;;5052691;28;20049;-71
2022/11/08 07:34:42;;;;;;;20.33;3.97;;;;;;;;;;5052727;28;20040;-71
2022/11/08 07:37:09;;;;;;;17.38;2.40;;;;;;;;;;5052696;28;20049;-71
2022/11/08 07:39:35;;;;;;;17.45;2.90;;;;;;;;;;5051494;28;20045;-72
2022/11/08 07:42:02;;;;;;;14.35;2.35;;;;;;;;;;5039781;28;20060;-71
2022/11/08 07:44:28;;;;;;;18.42;2.53;;;;;;;;;;5045533;28;20051;-72
2022/11/08 07:46:54;;;;;;;10.95;1.60;;;;;;;;;;5052466;28;20040;-72
2022/11/08 07:49:21;;;;;;;13.15;2.17;;;;;;;;;;5052351;28;20052;-72
2022/11/08 07:51:47;;;;;;;10.07;1.85;;;;;;;;;;5045898;28;20045;-73
2022/11/08 07:54:13;;;;;;;13.77;2.50;;;;;;;;;;5031205;28;20053;-73
2022/11/08 07:56:40;;;;;;;12.32;1.98;;;;;;;;;;5047835;28;20063;-72
2022/11/08 07:59:06;;;;;;;15.82;2.15;;;;;;;;;;5052429;28;20475;-72
2022/11/08 08:01:32;;;;;;;10.88;1.73;;;;;;;;;;5032536;28;20485;-72
2022/11/08 08:03:59;;;;;;;10.45;2.08;;;;;;;;;;5035012;28;20052;-72
2022/11/08 08:06:25;;;;;;;11.60;2.15;;;;;;;;;;5040248;28;20525;-71
2022/11/08 08:08:52;;;;;;;15.27;2.63;;;;;;;;;;5031583;28;20504;-72
2022/11/08 08:11:18;;;;;;;17.27;2.65;;;;;;;;;;5035662;28;20050;-72
2022/11/08 08:13:45;;;;;;;13.70;2.20;;;;;;;;;;5031709;28;20045;-71
2022/11/08 08:16:11;;;;;;;12.77;1.92;;;;;;;;;;5031489;28;20045;-71
2022/11/08 08:18:37;;;;;;;12.93;1.90;;;;;;;;;;5031806;28;20500;-72
2022/11/08 08:21:04;;;;;;;15.63;2.25;;;;;;;;;;5047971;28;20424;-76
2022/11/08 08:23:30;;;;;;;18.80;2.80;;;;;;;;;;5052054;28;20079;-76
2022/11/08 08:25:57;;;;;;;11.35;2.45;;;;;;;;;;5051740;28;20508;-76
2022/11/08 08:28:23;;;;;;;17.33;2.05;;;;;;;;;;5050951;28;20041;-78
2022/11/08 08:30:49;;;;;;;22.10;2.75;;;;;;;;;;5035919;28;20041;-79
2022/11/08 08:33:16;;;;;;;16.55;2.85;;;;;;;;;;5031033;28;20489;-80
2022/11/08 08:36:01;;;;;;;13.75;2.53;;;;;;;;;;5034639;28;20045;-77
2022/11/08 08:38:28;;;;;;;17.73;2.47;;;;;;;;;;5050195;28;20045;-76
2022/11/08 08:40:55;;;;;;;18.88;2.40;;;;;;;;;;5031016;28;20053;-76
2022/11/08 08:43:21;;;;;;;20.00;2.97;;;;;;;;;;5033481;28;20057;-75
2022/11/08 08:45:48;;;;;;;23.42;3.17;;;;;;;;;;5051812;28;20072;-76
2022/11/08 08:48:14;;;;;;;23.02;3.20;;;;;;;;;;5051399;28;20475;-75
2022/11/08 08:50:41;;;;;;;22.63;3.55;;;;;;;;;;5051637;28;20063;-75
2022/11/08 08:53:09;;;;;;;19.23;3.00;;;;;;;;;;5050550;28;20051;-74
2022/11/08 08:55:35;;;;;;;;;;;;;;;;;;5052131;28;20056;-74
2022/11/08 08:58:02;;;;;;;17.13;3.53;;;;;;;;;;5051338;28;19927;-74
2022/11/08 09:00:28;;;;;;;22.13;3.33;;;;;;;;;;5050242;28;20053;-74
2022/11/08 09:03:15;;;;;;;18.10;3.10;;;;;;;;;;5051208;28;20444;-74
2022/11/08 09:05:45;;;;;;;27.20;3.50;;;;;;;;;;5051470;28;20048;-76
2022/11/08 09:08:11;;;;;;;24.30;3.58;;;;;;;;;;5037813;28;20485;-77
2022/11/08 09:10:38;;;;;;;22.80;3.13;;;;;;;;;;5030386;28;20099;-77
2022/11/08 09:13:04;;;;;;;21.08;3.33;;;;;;;;;;5034436;28;20045;-77
2022/11/08 09:15:31;;;;;;;19.20;2.97;;;;;;;;;;5040639;28;20679;-76
2022/11/08 09:17:57;;;;;;;19.77;3.83;;;;;;;;;;5050592;28;20496;-76
2022/11/08 09:20:24;;;;;;;22.08;3.60;;;;;;;;;;5050982;28;20059;-76
2022/11/08 09:22:50;;;;;;;21.58;3.30;;;;;;;;;;5039336;28;20053;-75
2022/11/08 09:25:17;;;;;;;27.63;4.10;;;;;;;;;;5044903;28;20373;-75
2022/11/08 09:27:43;;;;;;;29.52;4.18;;;;;;;;;;5048801;28;20147;-73
2022/11/08 09:30:10;;;;;;;20.15;3.13;;;;;;;;;;5050533;28;20053;-73
2022/11/08 09:32:36;;;;;;;20.80;2.85;;;;;;;;;;5050281;28;20045;-73
2022/11/08 09:35:23;;;;;;;20.30;3.47;;;;;;;;;;5050435;28;20072;-73
2022/11/08 09:37:51;;;;;;;19.50;2.67;;;;;;;;;;5050427;28;20056;-73
2022/11/08 09:40:20;;;;;;;20.45;3.15;;;;;;;;;;5050663;28;20049;-73
2022/11/08 09:43:01;;;;;;;23.05;2.95;;;;;;;;;;5050685;28;20127;-73
2022/11/08 09:45:37;;;;;;;17.55;4.03;;;;;;;;;;5050713;28;20049;-75
2022/11/08 09:48:06;;;;;;;21.70;3.40;;;;;;;;;;5040113;28;20437;-73
2022/11/08 09:50:42;;;;;;;18.13;3.75;;;;;;;;;;5041459;28;20053;-75
2022/11/08 09:53:21;;;;;;;16.15;2.78;;;;;;;;;;5042001;28;20053;-75
2022/11/08 09:55:55;;;;;;;18.40;4.05;;;;;;;;;;5028877;28;20527;-73
2022/11/08 09:58:21;;;;;;;21.85;3.47;;;;;;;;;;5049407;28;20057;-71
2022/11/08 10:00:52;;;;;;;17.30;3.63;;;;;;;;;;5033196;28;20519;-74
2022/11/08 10:03:20;;;;;;;22.77;3.50;;;;;;;;;;5052055;28;20059;-74
2022/11/08 10:05:46;;;;;;;;;;;;;;;;;;5054296;28;20053;-75
2022/11/08 10:08:33;;;;;;;22.63;4.40;;;;;;;;;;5051521;28;20273;-74
2022/11/08 10:11:05;;;;;;;15.13;2.33;;;;;;;;;;5052477;28;20124;-75
2022/11/08 10:13:46;;;;;;;18.45;2.90;;;;;;;;;;5042275;28;20053;-75
2022/11/08 10:16:35;;;;;;;16.25;2.72;;;;;;;;;;5054368;28;20052;-75
2022/11/08 10:19:04;;;;;;;17.15;3.13;;;;;;;;;;5039921;28;20067;-75
2022/11/08 10:21:30;;;;;;;21.48;3.60;;;;;;;;;;5040428;28;20060;-74
2022/11/08 10:24:10;;;;;;;22.98;3.35;;;;;;;;;;5053925;28;20485;-74
2022/11/08 10:26:41;;;;;;;18.05;3.10;;;;;;;;;;5054358;28;20048;-74
2022/11/08 10:29:12;;;;;;;13.20;2.45;;;;;;;;;;5053952;28;20499;-74
2022/11/08 10:31:39;;;;;;;17.98;3.75;;;;;;;;;;5053790;28;20045;-74
2022/11/08 10:34:11;;;;;;;10.20;1.80;;;;;;;;;;5053681;28;20048;-74
2022/11/08 10:36:42;;;;;;;8.45;1.55;;;;;;;;;;5053757;28;20048;-74
2022/11/08 10:39:08;;;;;;;12.82;2.67;;;;;;;;;;5053688;28;20412;-74
2022/11/08 10:41:40;;;;;;;11.75;2.22;;;;;;;;;;5050134;28;20413;-74
2022/11/08 10:44:20;;;;;;;9.45;2.35;;;;;;;;;;5042175;28;20083;-73
2022/11/08 10:46:56;;;;;;;12.75;2.28;;;;;;;;;;5053814;28;20127;-74
2022/11/08 10:49:25;;;;;;;16.17;2.42;;;;;;;;;;5053822;28;20252;-73
2022/11/08 10:51:53;;;;;;;12.40;2.35;;;;;;;;;;5053493;28;20053;-72
2022/11/08 10:54:38;;;;;;;18.48;2.85;;;;;;;;;;5053495;28;20128;-72
2022/11/08 10:57:04;;;;;;;20.67;2.65;;;;;;;;;;5053428;28;20146;-73
2022/11/08 10:59:31;;;;;;;17.42;2.90;;;;;;;;;;5053256;28;20049;-74
2022/11/08 11:01:58;;;;;;;11.90;2.08;;;;;;;;;;5053326;28;20045;-75
2022/11/08 11:04:25;;;;;;;15.68;2.35;;;;;;;;;;5052775;28;20045;-74
2022/11/08 11:06:52;;;;;;;17.25;2.53;;;;;;;;;;5053513;28;20037;-74
2022/11/08 11:09:19;;;;;;;9.82;2.22;;;;;;;;;;5053470;28;20392;-76
2022/11/08 11:11:54;;;;;;;13.52;2.17;;;;;;;;;;5053222;28;20051;-78
2022/11/08 11:14:20;;;;;;;10.70;2.05;;;;;;;;;;5053412;28;20056;-76
2022/11/08 11:16:55;;;;;;;13.52;1.88;;;;;;;;;;5053287;28;20128;-78
2022/11/08 11:19:26;;;;;;;15.73;2.13;;;;;;;;;;5052999;28;20060;-77
2022/11/08 11:21:54;;;;;;;13.40;2.13;;;;;;;;;;5025226;28;20041;-77
2022/11/08 11:24:21;;;;;;;8.35;1.23;;;;;;;;;;5052823;28;20055;-76
2022/11/08 11:26:48;;;;;;;7.07;1.10;;;;;;;;;;5053059;28;20044;-75
2022/11/08 11:29:19;;;;;;;7.82;1.38;;;;;;;;;;5052889;28;20041;-75
2022/11/08 11:31:47;;;;;;;4.90;0.93;;;;;;;;;;5052482;28;20045;-76
2022/11/08 11:34:13;;;;;;;;;;;;;;;;;;5051636;28;20061;-75
2022/11/08 11:36:39;;;;;;;4.85;1.00;;;;;;;;;;5052603;28;19925;-75
2022/11/08 11:39:11;;;;;;;4.57;0.93;;;;;;;;;;5048285;28;20045;-73
2022/11/08 11:41:43;;;;;;;3.38;0.85;;;;;;;;;;5042684;28;20049;-73
2022/11/08 11:44:27;;;;;;;6.22;1.23;;;;;;;;;;5034485;28;20056;-74
2022/11/08 11:46:58;;;;;;;7.18;1.00;;;;;;;;;;5024890;28;20052;-74
2022/11/08 11:49:28;;;;;;;8.65;1.42;;;;;;;;;;5050824;28;20041;-73
2022/11/08 11:51:54;;;;;;;7.88;1.35;;;;;;;;;;5051177;28;20057;-73
2022/11/08 11:54:30;;;;;;;8.40;1.40;;;;;;;;;;5052505;28;20048;-73
2022/11/08 11:57:03;;;;;;;7.97;1.92;;;;;;;;;;5052563;28;20041;-74
2022/11/08 11:59:55;;;;;;;13.80;1.77;;;;;;;;;;5039603;28;20047;-74
2022/11/08 12:02:25;;;;;;;8.80;1.70;;;;;;;;;;5050862;28;20059;-75
2022/11/08 12:04:51;;;;;;;9.45;1.95;;;;;;;;;;5052172;28;20052;-74
2022/11/08 12:07:23;;;;;;;7.15;1.98;;;;;;;;;;5052066;28;20044;-73
2022/11/08 12:09:50;;;;;;;10.68;1.92;;;;;;;;;;5037284;28;20128;-73
2022/11/08 12:12:21;;;;;;;7.70;1.50;;;;;;;;;;5051058;28;20064;-75
2022/11/08 12:14:54;;;;;;;7.68;1.67;;;;;;;;;;5036012;28;20068;-75
2022/11/08 12:17:39;;;;;;;7.60;1.90;;;;;;;;;;5050522;28;20055;-75
2022/11/08 12:20:10;;;;;;;9.00;1.65;;;;;;;;;;5051958;28;20045;-76
2022/11/08 12:22:39;;;;;;;5.07;1.55;;;;;;;;;;5051785;28;20490;-75
2022/11/08 12:25:14;;;;;;;9.48;1.77;;;;;;;;;;5051673;28;20053;-75
2022/11/08 12:27:50;;;;;;;5.80;1.35;;;;;;;;;;5046820;28;20486;-74
2022/11/08 12:30:24;;;;;;;9.55;1.50;;;;;;;;;;5036809;28;20044;-75
2022/11/08 12:33:09;;;;;;;7.15;1.30;;;;;;;;;;5051725;28;20154;-74
2022/11/08 12:35:43;;;;;;;8.40;1.33;;;;;;;;;;5051528;28;20455;-72
2022/11/08 12:38:29;;;;;;;7.60;1.60;;;;;;;;;;5051905;28;20278;-71
2022/11/08 12:41:02;;;;;;;10.75;2.10;;;;;;;;;;5046630;28;20060;-71
2022/11/08 12:43:31;;;;;;;10.60;2.05;;;;;;;;;;5028021;28;20053;-70
2022/11/08 12:46:06;;;;;;;13.85;2.30;;;;;;;;;;5027276;28;20429;-71
2022/11/08 12:48:44;;;;;;;9.45;1.98;;;;;;;;;;5031249;28;20057;-70
2022/11/08 12:51:20;;;;;;;9.77;2.17;;;;;;;;;;5025861;28;20050;-70
2022/11/08 12:53:52;;;;;;;11.02;2.30;;;;;;;;;;5027939;28;20424;-70
2022/11/08 12:56:40;;;;;;;11.57;2.05;;;;;;;;;;5030890;28;20497;-70
2022/11/08 12:59:21;;;;;;;15.38;2.65;;;;;;;;;;5030991;28;20408;-70
2022/11/08 13:01:48;;;;;;;13.57;2.83;;;;;;;;;;5030925;28;20467;-72
2022/11/08 13:04:17;;;;;;;14.95;2.50;;;;;;;;;;5030922;28;20049;-71
2022/11/08 13:06:55;;;;;;;11.18;2.50;;;;;;;;;;5027745;28;20053;-69
2022/11/08 13:09:27;;;;;;;16.25;3.22;;;;;;;;;;5030495;28;20124;-69
2022/11/08 13:12:00;;;;;;;15.68;2.13;;;;;;;;;;5030624;28;20060;-70
2022/11/08 13:14:27;;;;;;;11.68;2.45;;;;;;;;;;5031206;28;20049;-73
2022/11/08 13:17:12;;;;;;;17.98;3.30;;;;;;;;;;5030766;28;20061;-70
2022/11/08 13:19:48;;;;;;;14.88;2.75;;;;;;;;;;5031051;28;20059;-70
2022/11/08 13:22:30;;;;;;;21.52;2.15;;;;;;;;;;5029417;28;20128;-72
2022/11/08 13:24:57;;;;;;;16.35;2.75;;;;;;;;;;5030929;28;20054;-70
2022/11/08 13:27:32;;;;;;;16.42;2.20;;;;;;;;;;5032035;28;20053;-70
2022/11/08 13:30:22;;;;;;;12.27;2.17;;;;;;;;;;5033934;28;20037;-69
2022/11/08 13:32:51;;;;;;;13.35;2.63;;;;;;;;;;5038399;28;20059;-69
2022/11/08 13:35:38;;;;;;;8.18;1.80;;;;;;;;;;5052838;28;20373;-70
2022/11/08 13:38:17;;;;;;;11.57;2.22;;;;;;;;;;5052809;28;20059;-69
2022/11/08 13:41:01;;;;;;;11.60;1.88;;;;;;;;;;5054592;28;20053;-69
2022/11/08 13:43:32;;;;;;;4.38;1.10;;;;;;;;;;5054483;28;20049;-69
2022/11/08 13:46:18;;;;;;;5.72;1.30;;;;;;;;;;5047360;28;20396;-69
2022/11/08 13:48:56;;;;;;;6.88;1.05;;;;;;;;;;5027925;28;20506;-70
2022/11/08 13:51:30;;;;;;;7.70;1.10;;;;;;;;;;5038068;28;20051;-70
2022/11/08 13:54:25;;;;;;;4.82;1.40;;;;;;;;;;5049744;28;20045;-71
2022/11/08 13:56:58;;;;;;;7.38;1.52;;;;;;;;;;5037486;28;20413;-69
2022/11/08 13:59:28;;;;;;;10.20;1.42;;;;;;;;;;5050335;28;20051;-69
2022/11/08 14:01:56;;;;;;;9.10;1.30;;;;;;;;;;5054015;28;20064;-69
2022/11/08 14:04:31;;;;;;;11.55;1.75;;;;;;;;;;5054088;28;20052;-69
2022/11/08 14:07:10;;;;;;;6.18;1.27;;;;;;;;;;5048757;28;20045;-70
2022/11/08 14:10:02;;;;;;;7.93;1.33;;;;;;;;;;5053971;28;20049;-69
2022/11/08 14:12:33;;;;;;;4.28;1.23;;;;;;;;;;5032633;28;20049;-70
2022/11/08 14:15:17;;;;;;;6.30;1.17;;;;;;;;;;5050053;28;20044;-69
2022/11/08 14:18:22;;;;;;;6.57;1.13;;;;;;;;;;5053863;28;20041;-71
2022/11/08 14:20:49;;;;;;;8.60;1.33;;;;;;;;;;5051389;28;20049;-71
2022/11/08 14:23:18;;;;;;;10.63;1.23;;;;;;;;;;5034922;28;20044;-74
2022/11/08 14:25:46;;;;;;;3.85;0.73;;;;;;;;;;5052299;28;20063;-75
2022/11/08 14:28:25;;;;;;;1.60;0.40;;;;;;;;;;5054047;28;20052;-76
2022/11/08 14:30:51;;;;;;;2.08;0.15;;;;;;;;;;5054012;28;20047;-77
2022/11/08 14:33:19;;;;;;;1.25;0.28;;;;;;;;;;5053514;28;20504;-75
2022/11/08 14:36:03;;;;;;;2.17;0.50;;;;;;;;;;5053507;28;20056;-75
2022/11/08 14:38:32;;;;;;;1.40;0.28;;;;;;;;;;5053416;28;20052;-74
2022/11/08 14:40:59;;;;;;;1.50;0.28;;;;;;;;;;5052288;28;20045;-73
2022/11/08 14:43:26;;;;;;;1.13;0.50;;;;;;;;;;5042613;28;20045;-78
2022/11/08 14:45:52;;;;;;;1.45;0.50;;;;;;;;;;5044627;28;20046;-79
2022/11/08 14:48:22;;;;;;;3.92;0.45;;;;;;;;;;5032992;28;20128;-77
2022/11/08 14:50:56;;;;;;;2.08;0.40;;;;;;;;;;5049220;28;20056;-77
2022/11/08 14:53:26;;;;;;;3.05;0.40;;;;;;;;;;5046902;28;20121;-75
2022/11/08 14:56:04;;;;;;;2.08;0.55;;;;;;;;;;5037229;28;20041;-73
2022/11/08 14:58:30;;;;;;;0.65;0.20;;;;;;;;;;5053329;28;20063;-74
2022/11/08 15:00:58;;;;;;;2.67;0.40;;;;;;;;;;5052906;28;20049;-73
2022/11/08 15:03:27;;;;;;;5.90;0.60;;;;;;;;;;5047629;28;20049;-75
2022/11/08 15:05:54;;;;;;;7.30;2.97;;;;;;;;;;5023472;28;20486;-73
2022/11/08 15:08:30;;;;;;;4.15;0.88;;;;;;;;;;5031047;28;20045;-74
2022/11/08 15:11:04;;;;;;;3.22;0.88;;;;;;;;;;5031481;28;20046;-74
2022/11/08 15:13:42;;;;;;;5.38;0.82;;;;;;;;;;5024344;28;20047;-73